createdAt,value
2023-04-15T00:00:30.169Z,5.50
2023-04-15T00:02:58.384Z,5.40
2023-04-15T00:05:26.593Z,5.17
2023-04-15T00:07:56.023Z,5.07
2023-04-15T00:10:24.279Z,5.20
2023-04-15T00:12:53.376Z,5.20
2023-04-15T00:15:22.445Z,5.00
2023-04-15T00:17:51.999Z,5.67
2023-04-15T00:20:20.075Z,4.93
2023-04-15T00:22:48.156Z,4.77
2023-04-15T00:25:18.078Z,5.90
2023-04-15T00:27:46.108Z,5.50
2023-04-15T00:30:16.992Z,5.87
2023-04-15T00:32:45.125Z,6.37
2023-04-15T00:35:13.239Z,6.53
2023-04-15T00:37:41.292Z,6.53
2023-04-15T00:40:11.793Z,7.40
2023-04-15T00:42:42.307Z,7.50
2023-04-15T00:45:11.090Z,8.07
2023-04-15T00:47:39.261Z,7.73
2023-04-15T00:50:08.754Z,7.73
2023-04-15T00:52:37.245Z,7.97
2023-04-15T00:55:06.463Z,7.50
2023-04-15T00:57:34.918Z,8.17
2023-04-15T01:00:05.800Z,8.30
2023-04-15T01:02:33.926Z,8.43
2023-04-15T01:05:04.089Z,8.50
2023-04-15T01:07:32.376Z,8.73
2023-04-15T01:10:00.792Z,9.23
2023-04-15T01:12:29.141Z,8.87
2023-04-15T01:14:57.777Z,8.67
2023-04-15T01:17:27.241Z,9.27
2023-04-15T01:19:56.605Z,9.13
2023-04-15T01:22:25.601Z,10.27
2023-04-15T01:24:57.099Z,10.73
2023-04-15T01:27:26.620Z,10.00
2023-04-15T01:29:54.774Z,10.47
2023-04-15T01:32:22.876Z,9.90
2023-04-15T01:34:53.198Z,10.20
2023-04-15T01:37:26.106Z,11.50
2023-04-15T01:39:54.240Z,10.23
2023-04-15T01:42:24.155Z,10.20
2023-04-15T01:44:53.773Z,10.77
2023-04-15T01:47:21.887Z,11.33
2023-04-15T01:49:50.402Z,10.47
2023-04-15T01:52:18.464Z,10.73
2023-04-15T01:54:46.884Z,9.93
2023-04-15T01:57:14.909Z,10.27
2023-04-15T01:59:43.151Z,10.80
2023-04-15T02:02:12.704Z,9.87
2023-04-15T02:04:41.246Z,10.57
2023-04-15T02:07:09.313Z,10.10
2023-04-15T02:09:37.354Z,10.40
2023-04-15T02:12:05.814Z,10.10
2023-04-15T02:14:33.980Z,9.73
2023-04-15T02:17:07.356Z,9.47
2023-04-15T02:19:36.937Z,8.23
2023-04-15T02:22:04.983Z,7.30
2023-04-15T02:24:33.069Z,8.20
2023-04-15T02:27:01.193Z,8.17
2023-04-15T02:29:29.323Z,8.70
2023-04-15T02:31:57.788Z,8.10
2023-04-15T02:34:27.331Z,7.80
2023-04-15T02:37:00.055Z,7.63
2023-04-15T02:39:28.443Z,8.67
2023-04-15T02:41:56.855Z,8.17
2023-04-15T02:44:25.399Z,9.23
2023-04-15T02:46:58.422Z,9.10
2023-04-15T02:49:26.613Z,8.43
2023-04-15T02:51:55.482Z,6.93
2023-04-15T02:54:26.180Z,6.63
2023-04-15T02:56:56.301Z,6.67
2023-04-15T02:59:24.463Z,6.50
2023-04-15T03:01:52.596Z,5.17
2023-04-15T03:04:20.959Z,5.20
2023-04-15T03:06:49.213Z,4.97
2023-04-15T03:09:17.679Z,4.73
2023-04-15T03:11:47.698Z,4.70
2023-04-15T03:14:16.181Z,4.70
2023-04-15T03:16:47.490Z,4.80
2023-04-15T03:19:18.071Z,4.33
2023-04-15T03:21:46.588Z,5.13
2023-04-15T03:24:15.734Z,4.47
2023-04-15T03:26:44.316Z,5.07
2023-04-15T03:29:17.848Z,5.63
2023-04-15T03:31:46.997Z,5.57
2023-04-15T03:34:15.029Z,6.20
2023-04-15T03:36:43.122Z,6.77
2023-04-15T03:39:11.942Z,6.77
2023-04-15T03:41:39.995Z,6.10
2023-04-15T03:44:08.064Z,5.60
2023-04-15T03:46:37.517Z,5.10
2023-04-15T03:49:07.445Z,4.87
2023-04-15T03:51:35.755Z,4.00
2023-04-15T03:54:04.284Z,4.63
2023-04-15T03:56:32.388Z,4.13
2023-04-15T03:59:00.556Z,3.73
2023-04-15T04:01:28.794Z,3.40
2023-04-15T04:03:58.283Z,4.00
2023-04-15T04:06:26.662Z,3.70
2023-04-15T04:08:55.179Z,3.73
2023-04-15T04:11:23.231Z,3.70
2023-04-15T04:13:51.253Z,3.07
2023-04-15T04:16:19.401Z,3.40
2023-04-15T04:18:47.534Z,3.40
2023-04-15T04:21:16.980Z,3.23
2023-04-15T04:23:46.321Z,2.60
2023-04-15T04:26:14.439Z,3.20
2023-04-15T04:28:42.462Z,3.37
2023-04-15T04:31:10.484Z,3.20
2023-04-15T04:33:38.537Z,2.80
2023-04-15T04:36:07.533Z,3.47
2023-04-15T04:38:37.018Z,3.13
2023-04-15T04:41:05.150Z,3.13
2023-04-15T04:43:33.260Z,3.20
2023-04-15T04:46:01.428Z,3.17
2023-04-15T04:48:29.894Z,3.27
2023-04-15T04:50:57.955Z,3.10
2023-04-15T04:53:26.385Z,3.17
2023-04-15T04:55:55.866Z,3.00
2023-04-15T04:58:23.983Z,2.80
2023-04-15T05:00:52.038Z,3.13
2023-04-15T05:03:20.336Z,5.23
2023-04-15T05:05:49.336Z,3.13
2023-04-15T05:08:17.413Z,3.27
2023-04-15T05:10:45.526Z,2.60
2023-04-15T05:13:14.956Z,2.63
2023-04-15T05:15:43.449Z,2.77
2023-04-15T05:18:11.503Z,2.70
2023-04-15T05:20:39.842Z,2.80
2023-04-15T05:23:07.891Z,2.97
2023-04-15T05:25:35.952Z,2.80
2023-04-15T05:28:04.517Z,2.60
2023-04-15T05:30:33.952Z,2.60
2023-04-15T05:33:02.040Z,2.20
2023-04-15T05:35:30.157Z,2.60
2023-04-15T05:37:58.173Z,2.43
2023-04-15T05:40:26.659Z,2.47
2023-04-15T05:42:54.813Z,1.90
2023-04-15T05:45:22.874Z,2.10
2023-04-15T05:47:54.362Z,2.07
2023-04-15T05:50:23.052Z,2.03
2023-04-15T05:52:51.253Z,2.47
2023-04-15T05:55:19.629Z,2.23
2023-04-15T05:57:47.842Z,2.40
2023-04-15T06:00:16.489Z,2.30
2023-04-15T06:02:44.681Z,2.30
2023-04-15T06:05:14.492Z,1.90
2023-04-15T06:07:44.217Z,2.30
2023-04-15T06:10:13.199Z,2.20
2023-04-15T06:12:41.258Z,2.20
2023-04-15T06:15:11.377Z,2.50
2023-04-15T06:17:39.468Z,2.13
2023-04-15T06:20:08.657Z,2.50
2023-04-15T06:22:40.371Z,2.27
2023-04-15T06:25:09.341Z,1.87
2023-04-15T06:27:37.410Z,1.83
2023-04-15T06:30:06.488Z,2.10
2023-04-15T06:32:34.724Z,2.20
2023-04-15T06:35:02.772Z,1.90
2023-04-15T06:37:31.487Z,2.03
2023-04-15T06:40:00.941Z,1.87
2023-04-15T06:42:29.042Z,1.80
2023-04-15T06:44:57.110Z,2.43
2023-04-15T06:47:25.150Z,2.33
2023-04-15T06:49:53.510Z,2.10
2023-04-15T06:52:21.605Z,2.03
2023-04-15T06:54:49.657Z,2.07
2023-04-15T06:57:19.085Z,2.10
2023-04-15T06:59:47.196Z,2.33
2023-04-15T07:02:15.315Z,2.50
2023-04-15T07:04:43.854Z,2.57
2023-04-15T07:07:12.182Z,2.07
2023-04-15T07:09:40.234Z,1.93
2023-04-15T07:12:08.254Z,2.10
2023-04-15T07:14:37.814Z,2.23
2023-04-15T07:17:06.797Z,2.17
2023-04-15T07:19:34.942Z,2.13
2023-04-15T07:22:03.022Z,2.27
2023-04-15T07:24:31.246Z,2.27
2023-04-15T07:27:00.988Z,2.50
2023-04-15T07:29:29.493Z,3.20
2023-04-15T07:31:59.236Z,2.50
2023-04-15T07:34:27.674Z,2.57
2023-04-15T07:36:55.767Z,2.30
2023-04-15T07:39:23.821Z,2.30
2023-04-15T07:41:51.883Z,2.20
2023-04-15T07:44:19.917Z,2.10
2023-04-15T07:46:48.000Z,2.50
2023-04-15T07:49:19.369Z,2.13
2023-04-15T07:51:47.437Z,2.17
2023-04-15T07:54:15.523Z,2.03
2023-04-15T07:56:43.566Z,2.00
2023-04-15T07:59:12.016Z,1.90
2023-04-15T08:01:40.157Z,2.03
2023-04-15T08:04:08.464Z,1.90
2023-04-15T08:06:39.985Z,2.13
2023-04-15T08:09:08.296Z,1.67
2023-04-15T08:11:36.659Z,2.00
2023-04-15T08:14:04.803Z,1.97
2023-04-15T08:16:33.040Z,1.50
2023-04-15T08:19:01.333Z,1.60
2023-04-15T08:21:31.035Z,1.70
2023-04-15T08:24:01.722Z,154.07
2023-04-15T08:26:29.799Z,32.50
2023-04-15T08:28:57.987Z,31.77
2023-04-15T08:31:28.062Z,107.17
2023-04-15T08:33:56.966Z,186.40
2023-04-15T08:36:25.029Z,148.40
2023-04-15T08:38:53.607Z,178.07
2023-04-15T08:41:24.495Z,179.00
2023-04-15T08:43:58.484Z,177.00
2023-04-15T08:46:26.802Z,66.27
2023-04-15T08:48:55.193Z,62.73
2023-04-15T08:51:24.542Z,131.30
2023-04-15T08:53:53.475Z,51.87
2023-04-15T08:56:24.104Z,349.73
2023-04-15T08:58:52.391Z,211.63
2023-04-15T09:01:20.497Z,36.27
2023-04-15T09:03:49.396Z,59.30
2023-04-15T09:06:18.068Z,213.10
2023-04-15T09:08:46.242Z,114.73
2023-04-15T09:11:14.269Z,12.60
2023-04-15T09:13:43.731Z,28.27
2023-04-15T09:16:11.829Z,49.40
2023-04-15T09:18:40.294Z,33.90
2023-04-15T09:21:09.449Z,31.60
2023-04-15T09:23:37.590Z,7.17
2023-04-15T09:26:06.475Z,4.17
2023-04-15T09:28:35.970Z,2.37
2023-04-15T09:31:05.505Z,2.50
2023-04-15T09:33:34.967Z,5.03
2023-04-15T09:36:04.732Z,38.83
2023-04-15T09:38:32.878Z,9.80
2023-04-15T09:41:01.084Z,110.70
2023-04-15T09:43:39.425Z,36.03
2023-04-15T09:46:08.964Z,39.23
2023-04-15T09:48:37.702Z,11.73
2023-04-15T09:51:06.206Z,65.73
2023-04-15T09:53:35.977Z,13.40
2023-04-15T09:56:04.392Z,22.33
2023-04-15T09:58:33.519Z,77.13
2023-04-15T10:01:04.044Z,42.77
2023-04-15T10:03:36.914Z,14.60
2023-04-15T10:06:05.610Z,27.10
2023-04-15T10:08:34.987Z,14.17
2023-04-15T10:11:03.472Z,22.93
2023-04-15T10:13:35.143Z,43.37
2023-04-15T10:16:07.170Z,17.33
2023-04-15T10:18:38.129Z,18.70
2023-04-15T10:21:06.218Z,17.07
2023-04-15T10:23:34.265Z,77.03
2023-04-15T10:26:02.328Z,56.80
2023-04-15T10:28:30.722Z,71.93
2023-04-15T10:30:59.381Z,47.07
2023-04-15T10:33:27.731Z,31.37
2023-04-15T10:35:57.174Z,42.97
2023-04-15T10:38:39.089Z,9.60
2023-04-15T10:41:19.935Z,6.33
2023-04-15T10:43:53.148Z,3.50
2023-04-15T10:46:23.133Z,3.43
2023-04-15T10:48:52.471Z,2.87
2023-04-15T10:51:30.522Z,2.37
2023-04-15T10:53:59.813Z,3.00
2023-04-15T10:56:32.118Z,3.33
2023-04-15T10:59:01.899Z,3.87
2023-04-15T11:01:51.761Z,3.03
2023-04-15T11:04:53.508Z,2.90
2023-04-15T11:07:43.820Z,2.90
2023-04-15T11:10:56.803Z,2.60
2023-04-15T11:13:34.407Z,2.40
2023-04-15T11:16:03.385Z,2.73
2023-04-15T11:18:35.134Z,2.60
2023-04-15T11:21:04.943Z,3.20
2023-04-15T11:23:39.020Z,3.03
2023-04-15T11:26:09.865Z,3.80
2023-04-15T11:28:39.070Z,2.80
2023-04-15T11:31:08.700Z,3.20
2023-04-15T11:33:36.854Z,3.03
2023-04-15T11:36:05.739Z,3.00
2023-04-15T11:38:35.266Z,2.73
2023-04-15T11:41:04.729Z,2.90
2023-04-15T11:43:35.469Z,2.70
2023-04-15T11:46:03.899Z,2.83
2023-04-15T11:48:33.575Z,3.00
2023-04-15T11:51:02.592Z,2.90
2023-04-15T11:53:41.298Z,2.70
2023-04-15T11:56:11.622Z,3.23
2023-04-15T11:58:40.205Z,2.73
2023-04-15T12:01:08.409Z,3.43
2023-04-15T12:03:40.854Z,2.90
2023-04-15T12:06:17.991Z,3.23
2023-04-15T12:09:01.487Z,3.50
2023-04-15T12:11:32.697Z,3.40
2023-04-15T12:14:05.226Z,3.50
2023-04-15T12:16:37.104Z,3.20
2023-04-15T12:19:13.738Z,3.70
2023-04-15T12:21:43.264Z,3.37
2023-04-15T12:24:12.413Z,3.33
2023-04-15T12:26:46.458Z,3.53
2023-04-15T12:29:15.548Z,3.40
2023-04-15T12:31:51.758Z,3.50
2023-04-15T12:34:20.100Z,3.50
2023-04-15T12:36:48.165Z,3.67
2023-04-15T12:39:17.187Z,3.97
2023-04-15T12:41:46.699Z,3.57
2023-04-15T12:44:15.116Z,3.30
2023-04-15T12:46:43.179Z,3.53
2023-04-15T12:49:11.266Z,4.00
2023-04-15T12:51:39.506Z,3.87
2023-04-15T12:54:07.631Z,3.37
2023-04-15T12:56:35.741Z,3.73
2023-04-15T12:59:05.686Z,3.47
2023-04-15T13:01:33.779Z,4.20
2023-04-15T13:04:02.141Z,3.90
2023-04-15T13:06:30.644Z,4.13
2023-04-15T13:08:59.208Z,4.40
2023-04-15T13:11:27.364Z,9.70
2023-04-15T13:13:56.041Z,57.33
2023-04-15T13:16:25.768Z,17.27
2023-04-15T13:18:53.862Z,18.00
2023-04-15T13:21:21.948Z,29.00
2023-04-15T13:23:50.115Z,12.07
2023-04-15T13:26:18.818Z,4.70
2023-04-15T13:28:46.939Z,7.93
2023-04-15T13:31:15.098Z,5.57
2023-04-15T13:33:44.546Z,4.10
2023-04-15T13:36:12.614Z,3.63
2023-04-15T13:38:40.638Z,3.70
2023-04-15T13:41:09.077Z,3.90
2023-04-15T13:43:37.606Z,3.93
2023-04-15T13:46:05.897Z,4.17
2023-04-15T13:48:33.977Z,4.20
2023-04-15T13:51:03.405Z,3.73
2023-04-15T13:53:38.721Z,3.90
2023-04-15T13:56:08.137Z,4.70
2023-04-15T13:58:36.658Z,7.17
2023-04-15T14:01:06.148Z,3.87
2023-04-15T14:03:35.536Z,5.87
2023-04-15T14:06:06.663Z,4.10
2023-04-15T14:08:35.100Z,3.50
2023-04-15T14:11:03.211Z,3.60
2023-04-15T14:13:31.354Z,4.00
2023-04-15T14:15:59.493Z,3.43
2023-04-15T14:18:27.582Z,3.70
2023-04-15T14:20:55.673Z,3.13
2023-04-15T14:23:25.159Z,2.87
2023-04-15T14:25:53.212Z,3.10
2023-04-15T14:28:21.310Z,3.77
2023-04-15T14:30:49.374Z,3.57
2023-04-15T14:33:17.942Z,2.70
2023-04-15T14:35:46.396Z,2.90
2023-04-15T14:38:14.492Z,2.80
2023-04-15T14:40:44.752Z,2.50
2023-04-15T14:43:12.980Z,2.47
2023-04-15T14:45:43.695Z,3.00
2023-04-15T14:48:13.744Z,3.20
2023-04-15T14:50:41.884Z,2.90
2023-04-15T14:53:10.152Z,2.67
2023-04-15T14:55:38.207Z,3.20
2023-04-15T14:58:08.281Z,2.30
2023-04-15T15:00:39.298Z,1.87
2023-04-15T15:03:12.709Z,1.77
2023-04-15T15:05:41.304Z,2.20
2023-04-15T15:08:09.774Z,2.30
2023-04-15T15:10:48.641Z,2.27
2023-04-15T15:13:19.263Z,2.40
2023-04-15T15:15:49.539Z,2.20
2023-04-15T15:18:19.094Z,2.00
2023-04-15T15:20:47.619Z,2.10
2023-04-15T15:23:15.735Z,2.63
2023-04-15T15:25:43.862Z,2.20
2023-04-15T15:28:12.029Z,2.37
2023-04-15T15:30:43.324Z,2.30
2023-04-15T15:33:11.424Z,1.83
2023-04-15T15:35:39.569Z,2.00
2023-04-15T15:38:07.648Z,1.97
2023-04-15T15:40:35.731Z,1.83
2023-04-15T15:43:04.260Z,2.00
2023-04-15T15:45:32.395Z,2.10
2023-04-15T15:48:02.470Z,1.80
2023-04-15T15:50:30.739Z,1.40
2023-04-15T15:52:59.632Z,1.50
2023-04-15T15:55:28.238Z,1.40
2023-04-15T15:57:56.260Z,1.57
2023-04-15T16:00:24.962Z,1.33
2023-04-15T16:03:06.872Z,1.30
2023-04-15T16:05:37.386Z,1.20
2023-04-15T16:08:05.726Z,1.30
2023-04-15T16:10:34.397Z,1.23
2023-04-15T16:13:02.915Z,1.10
2023-04-15T16:15:31.055Z,1.10
2023-04-15T16:17:59.208Z,1.30
2023-04-15T16:20:28.496Z,1.13
2023-04-15T16:22:59.318Z,1.20
2023-04-15T16:25:27.645Z,1.50
2023-04-15T16:28:03.428Z,5.27
2023-04-15T16:30:36.076Z,1.27
2023-04-15T16:33:04.275Z,1.20
2023-04-15T16:35:34.068Z,1.07
2023-04-15T16:38:04.525Z,1.30
2023-04-15T16:40:32.955Z,0.90
2023-04-15T16:43:01.163Z,0.93
2023-04-15T16:45:29.405Z,1.00
2023-04-15T16:47:57.946Z,1.40
2023-04-15T16:50:26.062Z,1.50
2023-04-15T16:52:54.552Z,1.03
2023-04-15T16:55:24.045Z,1.07
2023-04-15T16:58:02.185Z,0.97
2023-04-15T17:00:32.070Z,1.10
2023-04-15T17:03:00.444Z,1.10
2023-04-15T17:05:29.215Z,1.17
2023-04-15T17:07:57.267Z,1.00
2023-04-15T17:10:26.705Z,1.30
2023-04-15T17:12:56.578Z,1.23
2023-04-15T17:15:24.741Z,1.60
2023-04-15T17:17:52.842Z,1.30
2023-04-15T17:20:21.178Z,1.30
2023-04-15T17:22:49.366Z,1.30
2023-04-15T17:25:17.752Z,1.30
2023-04-15T17:27:47.224Z,1.40
2023-04-15T17:30:15.314Z,1.13
2023-04-15T17:32:43.446Z,1.67
2023-04-15T17:35:11.956Z,1.30
2023-04-15T17:37:40.199Z,1.10
2023-04-15T17:40:09.273Z,1.30
2023-04-15T17:42:37.408Z,1.40
2023-04-15T17:45:08.072Z,1.93
2023-04-15T17:47:36.733Z,2.03
2023-04-15T17:50:05.055Z,2.00
2023-04-15T17:52:33.136Z,1.83
2023-04-15T17:55:01.249Z,2.27
2023-04-15T17:57:29.470Z,2.20
2023-04-15T17:59:58.234Z,2.90
2023-04-15T18:02:27.792Z,2.60
2023-04-15T18:04:56.138Z,3.30
2023-04-15T18:07:24.329Z,4.60
2023-04-15T18:09:52.503Z,4.83
2023-04-15T18:12:20.598Z,5.00
2023-04-15T18:14:48.961Z,3.87
2023-04-15T18:17:17.096Z,3.87
2023-04-15T18:19:46.603Z,3.30
2023-04-15T18:22:14.701Z,3.20
2023-04-15T18:24:43.347Z,3.17
2023-04-15T18:27:11.787Z,4.90
2023-04-15T18:29:39.830Z,4.00
2023-04-15T18:32:07.902Z,4.83
2023-04-15T18:34:36.038Z,4.80
2023-04-15T18:37:06.464Z,6.03
2023-04-15T18:39:34.546Z,5.00
2023-04-15T18:42:03.108Z,4.53
2023-04-15T18:44:31.423Z,3.80
2023-04-15T18:46:59.503Z,4.23
2023-04-15T18:49:27.699Z,3.43
2023-04-15T18:51:55.788Z,5.07
2023-04-15T18:54:25.669Z,3.87
2023-04-15T18:56:54.215Z,4.60
2023-04-15T18:59:28.860Z,3.83
2023-04-15T19:01:59.305Z,3.97
2023-04-15T19:04:28.994Z,4.30
2023-04-15T19:06:58.972Z,5.07
2023-04-15T19:09:29.554Z,4.07
2023-04-15T19:11:57.926Z,6.03
2023-04-15T19:14:26.011Z,5.70
2023-04-15T19:16:54.183Z,6.77
2023-04-15T19:19:22.544Z,6.40
2023-04-15T19:21:50.899Z,7.33
2023-04-15T19:24:19.187Z,6.20
2023-04-15T19:26:50.829Z,6.13
2023-04-15T19:29:19.026Z,6.60
2023-04-15T19:31:47.078Z,6.90
2023-04-15T19:34:15.639Z,7.00
2023-04-15T19:36:43.773Z,6.70
2023-04-15T19:39:11.791Z,6.63
2023-04-15T19:41:39.904Z,6.50
2023-04-15T19:44:09.452Z,6.27
2023-04-15T19:46:38.088Z,6.23
2023-04-15T19:49:06.596Z,5.83
2023-04-15T19:51:34.925Z,6.30
2023-04-15T19:54:03.044Z,7.03
2023-04-15T19:56:32.928Z,5.83
2023-04-15T19:59:02.681Z,6.10
2023-04-15T20:01:33.001Z,5.73
2023-04-15T20:04:03.426Z,6.20
2023-04-15T20:06:31.690Z,6.00
2023-04-15T20:08:59.775Z,5.50
2023-04-15T20:12:46.743Z,6.00
2023-04-15T20:14:17.642Z,6.20
2023-04-15T20:16:47.780Z,5.80
2023-04-15T20:19:15.912Z,5.73
2023-04-15T20:21:44.058Z,5.70
2023-04-15T20:24:12.179Z,6.33
2023-04-15T20:26:40.249Z,5.63
2023-04-15T20:29:08.904Z,5.23
2023-04-15T20:31:37.347Z,5.57
2023-04-15T20:34:07.181Z,5.27
2023-04-15T20:36:35.978Z,5.03
2023-04-15T20:39:04.292Z,5.63
2023-04-15T20:41:33.024Z,5.60
2023-04-15T20:44:01.114Z,4.60
2023-04-15T20:46:29.327Z,4.63
2023-04-15T20:48:57.399Z,4.80
2023-04-15T20:51:27.529Z,5.63
2023-04-15T20:53:56.275Z,5.73
2023-04-15T20:56:24.427Z,5.50
2023-04-15T20:58:52.468Z,5.23
2023-04-15T21:01:20.567Z,5.57
2023-04-15T21:03:48.833Z,5.30
2023-04-15T21:06:17.031Z,7.07
2023-04-15T21:08:46.899Z,7.20
2023-04-15T21:11:28.412Z,7.30
2023-04-15T21:14:03.675Z,6.47
2023-04-15T21:16:32.007Z,7.63
2023-04-15T21:19:00.148Z,8.00
2023-04-15T21:21:28.550Z,7.77
2023-04-15T21:23:58.303Z,7.13
2023-04-15T21:26:26.378Z,7.50
2023-04-15T21:28:54.380Z,6.93
2023-04-15T21:31:22.530Z,7.60
2023-04-15T21:33:51.199Z,7.03
2023-04-15T21:36:19.269Z,6.53
2023-04-15T21:38:47.344Z,7.23
2023-04-15T21:41:16.811Z,7.13
2023-04-15T21:43:44.888Z,7.47
2023-04-15T21:46:23.123Z,6.97
2023-04-15T21:48:54.164Z,7.00
2023-04-15T21:51:22.920Z,6.87
2023-04-15T21:53:52.587Z,7.50
2023-04-15T21:56:24.331Z,6.87
2023-04-15T21:58:56.803Z,7.33
2023-04-15T22:01:25.458Z,7.60
2023-04-15T22:03:53.881Z,7.00
2023-04-15T22:06:22.220Z,7.00
2023-04-15T22:08:56.888Z,7.00
2023-04-15T22:11:28.419Z,7.90
2023-04-15T22:13:57.761Z,7.50
2023-04-15T22:16:26.081Z,7.90
2023-04-15T22:18:54.254Z,8.67
2023-04-15T22:21:22.356Z,8.60
2023-04-15T22:23:50.497Z,8.37
2023-04-15T22:26:18.534Z,7.23
2023-04-15T22:28:48.322Z,7.87
2023-04-15T22:31:16.449Z,8.73
2023-04-15T22:33:44.631Z,7.83
2023-04-15T22:36:13.564Z,8.00
2023-04-15T22:38:41.708Z,7.80
2023-04-15T22:41:10.473Z,8.53
2023-04-15T22:43:38.950Z,7.93
2023-04-15T22:46:08.557Z,8.03
2023-04-15T22:48:36.638Z,7.00
2023-04-15T22:51:05.926Z,7.10
2023-04-15T22:53:34.010Z,8.07
2023-04-15T22:56:02.711Z,7.47
2023-04-15T22:58:32.152Z,7.27
2023-04-15T23:01:00.262Z,7.30
2023-04-15T23:03:29.885Z,7.70
2023-04-15T23:05:58.072Z,8.00
2023-04-15T23:08:26.128Z,6.70
2023-04-15T23:10:54.647Z,7.47
2023-04-15T23:13:22.729Z,7.43
2023-04-15T23:15:50.826Z,7.37
2023-04-15T23:18:18.895Z,7.50
2023-04-15T23:20:48.563Z,8.37
2023-04-15T23:23:17.051Z,6.77
2023-04-15T23:25:45.162Z,7.60
2023-04-15T23:28:13.217Z,7.07
2023-04-15T23:30:41.208Z,7.20
2023-04-15T23:33:09.315Z,7.40
2023-04-15T23:35:37.874Z,7.00
2023-04-15T23:38:07.636Z,6.70
2023-04-15T23:40:35.701Z,10.40
2023-04-15T23:43:03.714Z,7.10
2023-04-15T23:45:31.770Z,6.70
2023-04-15T23:48:00.005Z,6.13
2023-04-15T23:50:28.415Z,6.40
2023-04-15T23:52:56.965Z,7.23
2023-04-15T23:55:26.381Z,6.47
2023-04-15T23:57:54.499Z,6.23
